F/V Hebeilan — FULR — position and weather

sailwx.info

Track history (hours):
 
Tides and Currents Weather Stations Pressure Air Temp Water Temp Dewpoint Dewpoint Depression Visibility Wind Speed Wind Dir Waves Ship Positions

F/V Hebeilan

Last reported at 2017-Sep-26 08:45 UTC. Time now 2017-Sep-26 09:30 UTC.
Position N 47°31' W 003°40'.

Length 16 m; draft 2.5 m.

Type: Fishing. MMSI: 228133900.

Date/timePositionNaut miles runAvg speedWind from/ knotsBaromVisibWave heightAir tempDewpointWater temp
2017-Sep-26 08:45N 47°31' W 003°40'0 0.2
2017-Sep-26 08:30N 47°31' W 003°40'2 3.3
2017-Sep-26 07:59N 47°30' W 003°38'2 1.1
2017-Sep-26 05:49N 47°31' W 003°41'1 3.7
2017-Sep-26 05:30N 47°32' W 003°40'2 3.8
2017-Sep-26 05:00N 47°32' W 003°37'2 3.2
2017-Sep-26 04:30N 47°32' W 003°35'2 3.1
2017-Sep-26 04:00N 47°33' W 003°33'2 3.2
2017-Sep-26 03:31N 47°33' W 003°31'2 3.5
2017-Sep-26 03:00N 47°34' W 003°28'2 3.5
2017-Sep-26 02:30N 47°35' W 003°26'2 4.4
2017-Sep-26 02:00N 47°35' W 003°23'2 5.0
2017-Sep-26 01:30N 47°38' W 003°23'3 6.3
2017-Sep-26 01:00N 47°41' W 003°22'3 5.1
2017-Sep-26 00:28N 47°44' W 003°22'0 0.3
2017-Sep-26 00:00N 47°44' W 003°22'0 0.0
2017-Sep-25 23:30N 47°44' W 003°22'0 0.0
2017-Sep-25 23:00N 47°44' W 003°22'2 5.1
2017-Sep-25 22:30N 47°41' W 003°23'4 7.6
2017-Sep-25 22:00N 47°40' W 003°29'3 6.9
2017-Sep-25 21:30N 47°39' W 003°34'4 6.7
2017-Sep-25 20:59N 47°38' W 003°39'6 4.7
2017-Sep-25 19:44N 47°35' W 003°46'  
2017-Sep-22 02:00N 47°40' W 003°30'4 8.4
2017-Sep-22 01:30N 47°41' W 003°24'3 5.6
2017-Sep-22 00:59N 47°44' W 003°22'0 0.0
2017-Sep-22 00:29N 47°44' W 003°22'3 6.6
2017-Sep-22 00:00N 47°41' W 003°24'4 8.5
2017-Sep-21 23:30N 47°40' W 003°30'4 8.6
2017-Sep-21 23:00N 47°37' W 003°35'4 8.2
2017-Sep-21 22:30N 47°34' W 003°40'11 0.5
2017-Sep-21 02:33N 47°27' W 003°52'1 3.7
2017-Sep-21 02:12N 47°27' W 003°50'2 3.6
2017-Sep-21 01:44N 47°26' W 003°48'1 3.5
2017-Sep-21 01:30N 47°26' W 003°47'4 3.4
2017-Sep-21 00:25N 47°27' W 003°41'1 2.7
2017-Sep-20 23:59N 47°27' W 003°40'1 2.7
2017-Sep-20 23:28N 47°28' W 003°38'2 3.5
2017-Sep-20 23:00N 47°29' W 003°39'2 3.5
2017-Sep-20 22:30N 47°31' W 003°39'1 1.9
2017-Sep-20 22:00N 47°31' W 003°38'3 3.7
2017-Sep-20 21:20N 47°29' W 003°40'2 3.6
2017-Sep-20 20:51N 47°27' W 003°40'1 3.5
2017-Sep-20 20:27N 47°27' W 003°38'2 3.4
2017-Sep-20 19:53N 47°29' W 003°39'1 2.6
2017-Sep-20 19:26N 47°30' W 003°39'2 2.3
2017-Sep-20 18:36N 47°32' W 003°41'4 3.3
2017-Sep-20 17:30N 47°28' W 003°42'2 3.4
2017-Sep-20 16:56N 47°27' W 003°39'2 3.1
2017-Sep-20 16:13N 47°29' W 003°39'1 3.8
2017-Sep-20 15:54N 47°30' W 003°39'1 1.2
2017-Sep-20 15:24N 47°30' W 003°40'19 2.2
2017-Sep-20 06:48N 47°33' W 004°07'20 5.9
2017-Sep-20 03:19N 47°38' W 003°38'3 8.6
2017-Sep-20 03:00N 47°39' W 003°34'4 8.6
2017-Sep-20 02:30N 47°40' W 003°28'4 8.5
2017-Sep-20 02:00N 47°42' W 003°22'2 3.6
2017-Sep-20 01:31N 47°44' W 003°22'0 0.5
2017-Sep-20 01:00N 47°43' W 003°22'4 8.7
2017-Sep-20 00:30N 47°41' W 003°27'5 9.4
2017-Sep-20 00:00N 47°39' W 003°33'5 8.9
2017-Sep-19 23:28N 47°38' W 003°40'4 8.6
2017-Sep-19 22:58N 47°36' W 003°46'2 3.2
2017-Sep-19 22:24N 47°34' W 003°47'3 0.1
2017-Sep-19 03:33N 47°34' W 003°43'2 8.5
2017-Sep-19 03:20N 47°35' W 003°41'3 8.3
2017-Sep-19 02:55N 47°37' W 003°37'3 8.2
2017-Sep-19 02:30N 47°39' W 003°33'4 8.1
2017-Sep-19 02:00N 47°40' W 003°27'4 7.8
2017-Sep-19 01:30N 47°43' W 003°22'1 2.3
2017-Sep-19 00:59N 47°44' W 003°22'3 6.0
2017-Sep-19 00:30N 47°41' W 003°24'4 8.6
2017-Sep-19 00:00N 47°41' W 003°30'3 6.8
2017-Sep-18 23:30N 47°42' W 003°35'2 2.6
2017-Sep-18 22:54N 47°42' W 003°37'1 3.2
2017-Sep-18 22:30N 47°42' W 003°36'2 3.2
2017-Sep-18 22:00N 47°42' W 003°38'16 1.5
2017-Sep-18 11:29N 47°29' W 003°53'2 0.5
2017-Sep-18 07:18N 47°31' W 003°51'1 4.0
2017-Sep-18 06:59N 47°31' W 003°50'1 0.9
2017-Sep-18 06:13N 47°30' W 003°50'1 4.0
2017-Sep-18 05:56N 47°31' W 003°49'2 4.1
2017-Sep-18 05:30N 47°32' W 003°47'2 3.9
2017-Sep-18 05:00N 47°33' W 003°44'2 4.4
2017-Sep-18 04:30N 47°34' W 003°42'3 6.7
2017-Sep-18 03:59N 47°36' W 003°37'4 7.8
2017-Sep-18 03:29N 47°39' W 003°33'4 7.9
2017-Sep-18 03:00N 47°40' W 003°28'4 7.8
2017-Sep-18 02:30N 47°42' W 003°22'2 3.5
2017-Sep-18 02:00N 47°44' W 003°22'0 0.0
2017-Sep-16 10:58N 47°44' W 003°22'0 0.0
2017-Sep-16 10:28N 47°44' W 003°22'0 0.0
2017-Sep-16 09:58N 47°44' W 003°22'0 0.0
2017-Sep-16 09:28N 47°44' W 003°22'  
Track history (hours):
 
Tides and Currents Weather Stations Pressure Air Temp Water Temp Dewpoint Dewpoint Depression Visibility Wind Speed Wind Dir Waves Ship Positions

F/V Hebeilan

Last reported at 2017-Sep-26 08:45 UTC. Time now 2017-Sep-26 09:30 UTC.
Position N 47°31' W 003°40'.

Length 16 m; draft 2.5 m.

Type: Fishing. MMSI: 228133900.

Date/timePositionNaut miles runAvg speedWind from/ knotsBaromVisibWave heightAir tempDewpointWater temp
2017-Sep-26 08:45N 47°31' W 003°40'0 0.2
2017-Sep-26 08:30N 47°31' W 003°40'2 3.3
2017-Sep-26 07:59N 47°30' W 003°38'2 1.1
2017-Sep-26 05:49N 47°31' W 003°41'1 3.7
2017-Sep-26 05:30N 47°32' W 003°40'2 3.8
2017-Sep-26 05:00N 47°32' W 003°37'2 3.2
2017-Sep-26 04:30N 47°32' W 003°35'2 3.1
2017-Sep-26 04:00N 47°33' W 003°33'2 3.2
2017-Sep-26 03:31N 47°33' W 003°31'2 3.5
2017-Sep-26 03:00N 47°34' W 003°28'2 3.5
2017-Sep-26 02:30N 47°35' W 003°26'2 4.4
2017-Sep-26 02:00N 47°35' W 003°23'2 5.0
2017-Sep-26 01:30N 47°38' W 003°23'3 6.3
2017-Sep-26 01:00N 47°41' W 003°22'3 5.1
2017-Sep-26 00:28N 47°44' W 003°22'0 0.3
2017-Sep-26 00:00N 47°44' W 003°22'0 0.0
2017-Sep-25 23:30N 47°44' W 003°22'0 0.0
2017-Sep-25 23:00N 47°44' W 003°22'2 5.1
2017-Sep-25 22:30N 47°41' W 003°23'4 7.6
2017-Sep-25 22:00N 47°40' W 003°29'3 6.9
2017-Sep-25 21:30N 47°39' W 003°34'4 6.7
2017-Sep-25 20:59N 47°38' W 003°39'6 4.7
2017-Sep-25 19:44N 47°35' W 003°46'  
2017-Sep-22 02:00N 47°40' W 003°30'4 8.4
2017-Sep-22 01:30N 47°41' W 003°24'3 5.6
2017-Sep-22 00:59N 47°44' W 003°22'0 0.0
2017-Sep-22 00:29N 47°44' W 003°22'3 6.6
2017-Sep-22 00:00N 47°41' W 003°24'4 8.5
2017-Sep-21 23:30N 47°40' W 003°30'4 8.6
2017-Sep-21 23:00N 47°37' W 003°35'4 8.2
2017-Sep-21 22:30N 47°34' W 003°40'11 0.5
2017-Sep-21 02:33N 47°27' W 003°52'1 3.7
2017-Sep-21 02:12N 47°27' W 003°50'2 3.6
2017-Sep-21 01:44N 47°26' W 003°48'1 3.5
2017-Sep-21 01:30N 47°26' W 003°47'4 3.4
2017-Sep-21 00:25N 47°27' W 003°41'1 2.7
2017-Sep-20 23:59N 47°27' W 003°40'1 2.7
2017-Sep-20 23:28N 47°28' W 003°38'2 3.5
2017-Sep-20 23:00N 47°29' W 003°39'2 3.5
2017-Sep-20 22:30N 47°31' W 003°39'1 1.9
2017-Sep-20 22:00N 47°31' W 003°38'3 3.7
2017-Sep-20 21:20N 47°29' W 003°40'2 3.6
2017-Sep-20 20:51N 47°27' W 003°40'1 3.5
2017-Sep-20 20:27N 47°27' W 003°38'2 3.4
2017-Sep-20 19:53N 47°29' W 003°39'1 2.6
2017-Sep-20 19:26N 47°30' W 003°39'2 2.3
2017-Sep-20 18:36N 47°32' W 003°41'4 3.3
2017-Sep-20 17:30N 47°28' W 003°42'2 3.4
2017-Sep-20 16:56N 47°27' W 003°39'2 3.1
2017-Sep-20 16:13N 47°29' W 003°39'1 3.8
2017-Sep-20 15:54N 47°30' W 003°39'1 1.2
2017-Sep-20 15:24N 47°30' W 003°40'19 2.2
2017-Sep-20 06:48N 47°33' W 004°07'20 5.9
2017-Sep-20 03:19N 47°38' W 003°38'3 8.6
2017-Sep-20 03:00N 47°39' W 003°34'4 8.6
2017-Sep-20 02:30N 47°40' W 003°28'4 8.5
2017-Sep-20 02:00N 47°42' W 003°22'2 3.6
2017-Sep-20 01:31N 47°44' W 003°22'0 0.5
2017-Sep-20 01:00N 47°43' W 003°22'4 8.7
2017-Sep-20 00:30N 47°41' W 003°27'5 9.4
2017-Sep-20 00:00N 47°39' W 003°33'5 8.9
2017-Sep-19 23:28N 47°38' W 003°40'4 8.6
2017-Sep-19 22:58N 47°36' W 003°46'2 3.2
2017-Sep-19 22:24N 47°34' W 003°47'3 0.1
2017-Sep-19 03:33N 47°34' W 003°43'2 8.5
2017-Sep-19 03:20N 47°35' W 003°41'3 8.3
2017-Sep-19 02:55N 47°37' W 003°37'3 8.2
2017-Sep-19 02:30N 47°39' W 003°33'4 8.1
2017-Sep-19 02:00N 47°40' W 003°27'4 7.8
2017-Sep-19 01:30N 47°43' W 003°22'1 2.3
2017-Sep-19 00:59N 47°44' W 003°22'3 6.0
2017-Sep-19 00:30N 47°41' W 003°24'4 8.6
2017-Sep-19 00:00N 47°41' W 003°30'3 6.8
2017-Sep-18 23:30N 47°42' W 003°35'2 2.6
2017-Sep-18 22:54N 47°42' W 003°37'1 3.2
2017-Sep-18 22:30N 47°42' W 003°36'2 3.2
2017-Sep-18 22:00N 47°42' W 003°38'16 1.5
2017-Sep-18 11:29N 47°29' W 003°53'2 0.5
2017-Sep-18 07:18N 47°31' W 003°51'1 4.0
2017-Sep-18 06:59N 47°31' W 003°50'1 0.9
2017-Sep-18 06:13N 47°30' W 003°50'1 4.0
2017-Sep-18 05:56N 47°31' W 003°49'2 4.1
2017-Sep-18 05:30N 47°32' W 003°47'2 3.9
2017-Sep-18 05:00N 47°33' W 003°44'2 4.4
2017-Sep-18 04:30N 47°34' W 003°42'3 6.7
2017-Sep-18 03:59N 47°36' W 003°37'4 7.8
2017-Sep-18 03:29N 47°39' W 003°33'4 7.9
2017-Sep-18 03:00N 47°40' W 003°28'4 7.8
2017-Sep-18 02:30N 47°42' W 003°22'2 3.5
2017-Sep-18 02:00N 47°44' W 003°22'0 0.0
2017-Sep-16 10:58N 47°44' W 003°22'0 0.0
2017-Sep-16 10:28N 47°44' W 003°22'0 0.0
2017-Sep-16 09:58N 47°44' W 003°22'0 0.0
2017-Sep-16 09:28N 47°44' W 003°22'  

Dump ship's entire track history